עמוד ראשי
METAR-TAF:

METAR-TAF

שדות תעופה :

Fasa, איראן

קו רוחב: 28-58N, קו אורך: 053-41E, גובה: 1383מטר

תצפית מזג אוויר נוכחית

הדו"ח נערך לפני 1 שעות ו 13דקות, בשעה 19:00 UTC
רוח 4קשר מכיוון מערב/צפון-מערב
טמפרטורת 25 צלסיוס
לחות 24%
לחץ 1010 hPa
ראות 10 קילומטר או יותר
ללא עננים שבסיסם נמוך מ 5000 רגל או קומולונימבוס

METAR: OISF 131900Z 30004KT CAVOK 25/03 Q1009 A2982

זמן: 00:43 (20:13 UTC)


TAF: חסר

תצפיות ותחזיות מזג אוויר לגבי יותר מ- 4,000 שדות תעופה ברחבי העולם. דוחות METAR ו- TAF.

התחנות הזמינות מסומנות בנקודות צהובות ואדומות על גבי המפה.

העבר את העכבר לנקודה הצבעונית על מנת לראות את שם התחנה.

לאחר מכן, לחץ כדי לראות את תוכן ואת תחזיות מזג האוויר.

כדי לשנות את המפה: לחץ על הכפתורים הירוקים עם הפלוס השחור כדי להתקרב; על הכפתור הירוק עם המקף כדי להתרחק; או בחיצים הירוקים למפות סמוכות.


METAR-TAF: